Time;durP1;ratioP1;P1;durP2;ratioP2;P2;SDS_P1;SDS_P2;PMS_P1;PMS_P2;Temp;Humidity;BMP_temperature;BMP_pressure;BME280_temperature;BME280_humidity;BME280_pressure;Samples;Min_cycle;Max_cycle;Signal;HPM_P1;HPM_P2
2022/05/19 00:01:25;;;;;;;;;;;18.90;99.90;;;;;;5070679;28;19946;-80
2022/05/19 00:03:52;;;;;;;;;;;19.00;99.90;;;;;;5065818;28;19924;-81
2022/05/19 00:06:19;;;;;;;;;;;18.90;99.90;;;;;;5062589;28;19920;-80
2022/05/19 00:08:46;;;;;;;;;;;18.90;99.90;;;;;;5061839;28;19993;-81
2022/05/19 00:11:14;;;;;;;;;;;18.90;99.90;;;;;;5061082;28;20526;-78
2022/05/19 00:13:41;;;;;;;;;;;18.90;99.90;;;;;;5062993;28;20015;-80
2022/05/19 00:16:11;;;;;;;;;;;18.90;99.90;;;;;;5060625;28;19924;-80
2022/05/19 00:18:38;;;;;;;;;;;18.90;99.90;;;;;;5060786;28;19924;-78
2022/05/19 00:21:05;;;;;;;;;;;18.90;99.90;;;;;;5061456;28;20177;-81
2022/05/19 00:23:32;;;;;;;;;;;19.00;99.90;;;;;;5061204;28;19924;-79
2022/05/19 00:25:59;;;;;;;;;;;19.00;99.90;;;;;;5060231;28;19948;-80
2022/05/19 00:28:26;;;;;;;;;;;19.00;99.90;;;;;;5062232;28;19925;-81
2022/05/19 00:30:53;;;;;;;;;;;19.00;99.90;;;;;;5061756;28;19924;-78
2022/05/19 00:33:21;;;;;;;;;;;19.00;99.90;;;;;;5070446;28;19930;-84
2022/05/19 00:35:48;;;;;;;;;;;19.00;99.90;;;;;;5082500;28;19973;-81
2022/05/19 00:38:15;;;;;;;;;;;19.00;99.90;;;;;;5077756;28;19978;-78
2022/05/19 00:40:46;;;;;;;;;;;19.10;99.90;;;;;;5058937;28;19924;-79
2022/05/19 00:43:13;;;;;;;;;;;19.00;99.90;;;;;;5060623;28;19934;-77
2022/05/19 00:45:45;;;;;;;;;;;19.10;99.90;;;;;;5056571;28;19928;-76
2022/05/19 00:48:16;;;;;;;;;;;19.10;99.90;;;;;;5055036;28;19924;-77
2022/05/19 00:50:47;;;;;;;;;;;19.10;99.90;;;;;;5058303;28;19928;-82
2022/05/19 00:53:16;;;;;;;;;;;19.10;99.90;;;;;;5062506;28;19920;-80
2022/05/19 00:55:45;;;;;;;;;;;19.10;99.90;;;;;;5060078;28;19928;-81
2022/05/19 00:58:13;;;;;;;;;;;19.10;99.90;;;;;;5058979;28;19920;-81
2022/05/19 01:00:41;;;;;;;;;;;19.10;99.90;;;;;;5060099;28;19924;-78
2022/05/19 01:03:10;;;;;;;;;;;19.10;99.90;;;;;;5058941;28;19978;-77
2022/05/19 01:05:39;;;;;;;;;;;19.10;99.90;;;;;;5064916;28;20369;-77
2022/05/19 01:08:12;;;;;;;;;;;19.20;99.90;;;;;;5066184;28;20639;-78
2022/05/19 01:10:39;;;;;;;;;;;19.20;99.90;;;;;;5066017;28;20376;-79
2022/05/19 01:13:07;;;;;;;;;;;19.30;99.90;;;;;;5063541;28;19919;-80
2022/05/19 01:15:34;;;;;;;;;;;19.40;99.90;;;;;;5065184;28;20272;-79
2022/05/19 01:18:02;;;;;;;;;;;19.40;99.90;;;;;;5062064;28;19923;-77
2022/05/19 01:20:29;;;;;;;;;;;19.50;99.90;;;;;;5074845;28;19924;-78
2022/05/19 01:22:59;;;;;;;;;;;19.50;99.90;;;;;;5068727;28;19924;-80
2022/05/19 01:25:33;;;;;;;;;;;19.60;99.90;;;;;;5039250;28;20367;-78
2022/05/19 01:28:02;;;;;;;;;;;19.60;99.90;;;;;;5046480;28;19925;-80
2022/05/19 01:30:29;;;;;;;;;;;19.70;99.90;;;;;;5075017;28;19920;-80
2022/05/19 01:32:56;;;;;;;;;;;19.70;99.90;;;;;;5098838;28;19969;-78
2022/05/19 01:35:23;;;;;;;;;;;19.80;99.90;;;;;;5055681;28;20431;-77
2022/05/19 01:37:50;;;;;;;;;;;19.80;99.90;;;;;;5055577;28;19934;-76
2022/05/19 01:40:29;;;;;;;;;;;19.80;99.90;;;;;;5064261;28;19930;-80
2022/05/19 01:43:02;;;;;;;;;;;19.90;99.90;;;;;;5061533;28;20244;-82
2022/05/19 01:45:40;;;;;;;;;;;19.80;99.90;;;;;;5059945;28;19920;-80
2022/05/19 01:48:10;;;;;;;;;;;19.90;99.90;;;;;;5059863;28;20375;-81
2022/05/19 01:50:40;;;;;;;;;;;19.90;99.90;;;;;;5060418;28;20009;-81
2022/05/19 01:53:09;;;;;;;;;;;19.90;99.90;;;;;;5066207;28;19928;-81
2022/05/19 01:55:39;;;;;;;;;;;19.90;99.90;;;;;;5063082;28;19920;-82
2022/05/19 01:58:14;;;;;;;;;;;20.00;99.90;;;;;;5060012;28;20031;-81
2022/05/19 02:00:42;;;;;;;;;;;20.00;99.90;;;;;;5060718;28;19942;-82
2022/05/19 02:03:12;;;;;;;;;;;20.00;99.90;;;;;;5061299;28;19920;-80
2022/05/19 02:05:43;;;;;;;;;;;20.10;99.90;;;;;;5078556;28;19935;-81
2022/05/19 02:08:14;;;;;;;;;;;20.10;99.90;;;;;;5061213;28;20379;-79
2022/05/19 02:10:43;;;;;;;;;;;20.10;99.90;;;;;;5077744;28;19931;-79
2022/05/19 02:13:10;;;;;;;;;;;20.10;99.90;;;;;;5059518;28;19928;-77
2022/05/19 02:15:40;;;;;;;;;;;20.10;99.90;;;;;;5058670;28;19920;-82
2022/05/19 02:18:08;;;;;;;;;;;20.10;99.90;;;;;;5064107;28;19959;-79
2022/05/19 02:20:37;;;;;;;;;;;20.10;99.90;;;;;;5060434;28;20283;-80
2022/05/19 02:23:05;;;;;;;;;;;20.10;99.90;;;;;;5057361;28;19924;-80
2022/05/19 02:25:34;;;;;;;;;;;20.10;99.90;;;;;;5056485;28;20626;-80
2022/05/19 02:28:03;;;;;;;;;;;20.00;99.90;;;;;;5056427;28;20264;-79
2022/05/19 02:30:36;;;;;;;;;;;20.00;99.90;;;;;;5076162;28;20380;-79
2022/05/19 02:33:03;;;;;;;;;;;20.00;99.90;;;;;;5056626;28;19920;-80
2022/05/19 02:35:32;;;;;;;;;;;20.10;99.90;;;;;;5048244;28;19931;-80
2022/05/19 02:37:59;;;;;;;;;;;20.00;99.90;;;;;;5057772;28;19924;-80
2022/05/19 02:40:28;;;;;;;;;;;20.00;99.90;;;;;;5057225;28;19920;-82
2022/05/19 02:42:55;;;;;;;;;;;20.00;99.90;;;;;;5059200;28;20392;-81
2022/05/19 02:45:22;;;;;;;;;;;20.00;99.90;;;;;;5058557;28;19935;-80
2022/05/19 02:47:49;;;;;;;;;;;20.00;99.90;;;;;;5055463;28;19924;-79
2022/05/19 02:50:18;;;;;;;;;;;20.00;99.90;;;;;;5055915;28;19997;-79
2022/05/19 02:52:47;;;;;;;;;;;19.90;99.90;;;;;;5058794;28;20426;-80
2022/05/19 02:55:14;;;;;;;;;;;19.90;99.90;;;;;;5058486;28;20456;-81
2022/05/19 02:57:42;;;;;;;;;;;19.90;99.90;;;;;;5058550;28;19924;-81
2022/05/19 03:00:12;;;;;;;;;;;19.90;99.90;;;;;;5093022;28;19970;-80
2022/05/19 03:02:39;;;;;;;;;;;19.90;99.90;;;;;;5059344;28;19921;-80
2022/05/19 03:05:06;;;;;;;;;;;19.90;99.90;;;;;;5055676;28;19920;-78
2022/05/19 03:07:33;;;;;;;;;;;19.90;99.90;;;;;;5058070;23;20452;-74
2022/05/19 03:10:01;;;;;;;;;;;21.20;99.90;;;;;;5043290;28;19927;-73
2022/05/19 03:12:28;;;;;;;;;;;19.80;99.90;;;;;;5054746;28;20335;-73
2022/05/19 03:14:55;;;;;;;;;;;19.80;99.90;;;;;;5053886;28;19931;-75
2022/05/19 03:17:22;;;;;;;;;;;19.80;99.90;;;;;;5051594;28;19947;-73
2022/05/19 03:19:52;;;;;;;;;;;19.80;99.90;;;;;;5029510;28;19967;-73
2022/05/19 03:22:20;;;;;;;;;;;19.80;99.90;;;;;;5046345;28;20023;-74
2022/05/19 03:24:47;;;;;;;;;;;19.70;99.90;;;;;;5046918;28;20407;-74
2022/05/19 03:27:15;;;;;;;;;;;19.70;99.90;;;;;;5033149;28;19927;-74
2022/05/19 03:29:42;;;;;;;;;;;21.60;99.90;;;;;;5037850;28;19925;-73
2022/05/19 03:32:09;;;;;;;;;;;19.70;99.90;;;;;;5047177;28;19921;-74
2022/05/19 03:34:36;;;;;;;;;;;19.60;99.90;;;;;;5047224;28;20007;-73
2022/05/19 03:37:03;;;;;;;;;;;19.60;99.90;;;;;;5047409;28;20289;-73
2022/05/19 03:39:30;;;;;;;;;;;19.60;99.90;;;;;;5050528;28;19928;-73
2022/05/19 03:41:59;;;;;;;;;;;19.60;99.90;;;;;;5048736;28;19924;-74
2022/05/19 03:44:28;;;;;;;;;;;19.60;99.90;;;;;;5050127;28;19921;-71
2022/05/19 03:46:54;;;;;;;;;;;19.60;99.90;;;;;;5049631;28;19932;-71
2022/05/19 03:49:21;;;;;;;;;;;19.60;99.90;;;;;;5023582;28;19920;-71
2022/05/19 03:51:48;;;;;;;;;;;19.60;99.90;;;;;;5035781;28;19932;-70
2022/05/19 03:54:14;;;;;;;;;;;19.60;99.90;;;;;;5009598;28;20574;-71
2022/05/19 03:56:41;;;;;;;;;;;19.60;99.90;;;;;;5033962;28;20056;-71
2022/05/19 03:59:08;;;;;;;;;;;19.70;99.90;;;;;;5036696;28;19936;-71
2022/05/19 04:01:36;;;;;;;;;;;19.70;99.90;;;;;;5034378;28;19952;-71
2022/05/19 04:04:03;;;;;;;;;;;19.70;99.90;;;;;;5034081;28;20629;-70
2022/05/19 04:06:34;;;;;;;;;;;19.70;99.90;;;;;;5035829;28;19932;-70
2022/05/19 04:09:01;;;;;;;;;;;19.70;99.90;;;;;;5037618;28;20956;-73
2022/05/19 04:11:28;;;;;;;;;;;19.80;99.90;;;;;;5036268;28;19957;-70
2022/05/19 04:13:55;;;;;;;;;;;19.80;99.90;;;;;;5017041;28;20920;-70
2022/05/19 04:16:22;;;;;;;;;;;19.90;99.90;;;;;;5034930;28;19936;-70
2022/05/19 04:18:50;;;;;;;;;;;20.00;99.90;;;;;;5032651;28;20475;-71
2022/05/19 04:21:17;;;;;;;;;;;20.10;99.90;;;;;;5014740;28;19928;-70
2022/05/19 04:23:43;;;;;;;;;;;20.20;99.90;;;;;;5036165;28;20305;-71
2022/05/19 04:26:10;;;;;;;;;;;20.30;99.90;;;;;;5033547;28;20446;-75
2022/05/19 04:28:37;;;;;;;;;;;20.30;99.90;;;;;;5038723;28;19935;-77
2022/05/19 04:31:04;;;;;;;;;;;20.40;99.90;;;;;;5035715;28;19928;-74
2022/05/19 04:33:30;;;;;;;;;;;20.50;99.90;;;;;;5033759;28;19928;-74
2022/05/19 04:35:59;;;;;;;;;;;20.60;99.90;;;;;;5036652;28;19936;-75
2022/05/19 04:38:25;;;;;;;;;;;20.70;99.90;;;;;;5037113;28;19984;-75
2022/05/19 04:40:52;;;;;;;;;;;20.80;99.90;;;;;;5038323;28;20043;-76
2022/05/19 04:43:22;;;;;;;;;;;20.90;99.90;;;;;;5035612;28;19924;-76
2022/05/19 04:45:50;;;;;;;;;;;21.10;99.90;;;;;;5037102;28;20377;-74
2022/05/19 04:48:16;;;;;;;;;;;21.20;99.90;;;;;;5036148;28;20019;-71
2022/05/19 04:50:43;;;;;;;;;;;21.40;99.90;;;;;;5035405;28;19929;-72
2022/05/19 04:53:11;;;;;;;;;;;21.50;99.90;;;;;;5030871;28;19928;-71
2022/05/19 04:55:39;;;;;;;;;;;21.70;99.90;;;;;;5036621;28;19928;-71
2022/05/19 04:58:06;;;;;;;;;;;22.00;99.90;;;;;;5018316;28;19929;-71
2022/05/19 05:00:36;;;;;;;;;;;22.20;99.90;;;;;;5041061;28;19991;-71
2022/05/19 05:03:03;;;;;;;;;;;22.30;99.90;;;;;;5040242;28;19935;-71
2022/05/19 05:05:30;;;;;;;;;;;22.40;99.90;;;;;;5040332;28;19929;-71
2022/05/19 05:07:57;;;;;;;;;;;22.50;99.90;;;;;;5042035;28;19950;-70
2022/05/19 05:10:25;;;;;;;;;;;22.60;99.90;;;;;;5023745;28;19935;-71
2022/05/19 05:12:52;;;;;;;;;;;22.60;99.90;;;;;;5018976;28;19935;-73
2022/05/19 05:15:19;;;;;;;;;;;22.60;99.90;;;;;;5038853;28;19936;-72
2022/05/19 05:17:46;;;;;;;;;;;22.60;99.90;;;;;;5042824;28;19943;-74
2022/05/19 05:20:13;;;;;;;;;;;22.60;99.90;;;;;;5043513;28;20011;-75
2022/05/19 05:22:40;;;;;;;;;;;22.60;99.90;;;;;;5041165;28;19935;-74
2022/05/19 05:25:09;;;;;;;;;;;22.60;99.90;;;;;;5048684;28;19934;-75
2022/05/19 05:27:38;;;;;;;;;;;22.50;99.90;;;;;;5048699;28;19928;-76
2022/05/19 05:30:06;;;;;;;;;;;22.40;99.90;;;;;;5048311;28;19929;-74
2022/05/19 05:32:33;;;;;;;;;;;22.30;99.90;;;;;;5051716;28;19921;-74
2022/05/19 05:35:00;;;;;;;;;;;22.20;99.90;;;;;;5062021;28;19936;-75
2022/05/19 05:37:27;;;;;;;;;;;22.30;99.90;;;;;;5056006;28;19921;-74
2022/05/19 05:39:54;;;;;;;;;;;22.30;99.90;;;;;;5047130;28;20214;-74
2022/05/19 05:42:21;;;;;;;;;;;22.30;99.90;;;;;;5034051;28;20396;-76
2022/05/19 05:44:49;;;;;;;;;;;22.50;99.90;;;;;;5027836;28;19958;-74
2022/05/19 05:47:16;;;;;;;;;;;22.80;99.90;;;;;;5043457;28;19925;-75
2022/05/19 05:49:43;;;;;;;;;;;23.10;99.90;;;;;;5041003;28;19974;-73
2022/05/19 05:52:10;;;;;;;;;;;23.60;99.90;;;;;;5015875;28;19929;-76
2022/05/19 05:54:36;;;;;;;;;;;24.00;99.90;;;;;;5021066;28;20015;-75
2022/05/19 05:57:04;;;;;;;;;;;24.40;99.90;;;;;;5046794;28;19943;-74
2022/05/19 05:59:30;;;;;;;;;;;25.60;99.90;;;;;;5046369;28;19983;-75
2022/05/19 06:01:58;;;;;;;;;;;27.20;99.90;;;;;;5040646;28;19928;-76
2022/05/19 06:04:25;;;;;;;;;;;30.30;99.90;;;;;;5029882;28;19935;-77
2022/05/19 06:06:52;;;;;;;;;;;30.50;99.90;;;;;;5040279;28;19929;-76
2022/05/19 06:09:19;;;;;;;;;;;32.00;99.90;;;;;;5039449;28;19928;-76
2022/05/19 06:11:45;;;;;;;;;;;33.40;99.90;;;;;;5021050;28;19932;-75
2022/05/19 06:14:12;;;;;;;;;;;35.30;99.90;;;;;;5039987;28;19929;-76
2022/05/19 06:16:39;;;;;;;;;;;35.30;99.30;;;;;;5020356;28;19935;-75
2022/05/19 06:19:07;;;;;;;;;;;35.80;95.50;;;;;;5039137;28;19932;-77
2022/05/19 06:21:36;;;;;;;;;;;35.70;93.60;;;;;;5038269;28;19925;-79
2022/05/19 06:24:04;;;;;;;;;;;35.70;92.10;;;;;;5038750;28;19928;-76
2022/05/19 06:26:33;;;;;;;;;;;35.80;92.90;;;;;;5026719;28;20839;-77
2022/05/19 06:29:00;;;;;;;;;;;35.80;90.30;;;;;;5038765;28;21316;-75
2022/05/19 06:31:27;;;;;;;;;;;35.80;87.40;;;;;;5036829;28;19929;-73
2022/05/19 06:33:54;;;;;;;;;;;35.90;86.70;;;;;;5039379;28;19935;-74
2022/05/19 06:36:23;;;;;;;;;;;35.90;86.40;;;;;;5041542;28;20015;-74
2022/05/19 06:38:50;;;;;;;;;;;35.80;84.60;;;;;;5041141;28;19929;-73
2022/05/19 06:44:02;;;;;;;;;;;36.50;83.60;;;;;;5035604;28;20078;-73
2022/05/19 06:46:29;;;;;;;;;;;36.90;82.00;;;;;;5036436;28;19985;-73
2022/05/19 06:48:55;;;;;;;;;;;37.30;80.30;;;;;;5034573;28;19978;-73
2022/05/19 06:51:23;;;;;;;;;;;37.40;77.50;;;;;;5038843;28;19928;-74
2022/05/19 06:53:51;;;;;;;;;;;36.50;74.50;;;;;;5037755;28;19925;-73
2022/05/19 06:56:17;;;;;;;;;;;34.80;76.40;;;;;;5552962;22;19936;-73
2022/05/19 06:58:44;;;;;;;;;;;34.30;76.00;;;;;;5034553;28;19933;-73
2022/05/19 07:01:11;;;;;;;;;;;33.10;76.20;;;;;;5034230;28;20583;-72
2022/05/19 07:03:38;;;;;;;;;;;32.30;78.10;;;;;;5034432;28;19932;-73
2022/05/19 07:06:05;;;;;;;;;;;31.60;79.70;;;;;;5034248;28;20389;-74
2022/05/19 07:08:33;;;;;;;;;;;31.80;81.90;;;;;;5031640;28;19963;-73
2022/05/19 07:11:00;;;;;;;;;;;32.30;82.20;;;;;;5029252;28;19956;-73
2022/05/19 07:13:28;;;;;;;;;;;32.40;82.10;;;;;;5033953;28;20366;-73
2022/05/19 07:15:55;;;;;;;;;;;32.70;81.30;;;;;;5032692;28;21091;-75
2022/05/19 07:18:21;;;;;;;;;;;33.20;80.80;;;;;;5030998;28;20409;-75
2022/05/19 07:20:48;;;;;;;;;;;33.70;80.00;;;;;;5031773;28;19986;-75
2022/05/19 07:23:18;;;;;;;;;;;34.00;78.60;;;;;;5030480;28;19978;-74
2022/05/19 07:25:47;;;;;;;;;;;34.00;78.60;;;;;;5031310;28;20672;-76
2022/05/19 07:28:15;;;;;;;;;;;34.00;77.90;;;;;;5032367;28;19929;-74
2022/05/19 07:30:43;;;;;;;;;;;34.00;77.30;;;;;;5031318;28;20439;-73
2022/05/19 07:33:10;;;;;;;;;;;34.10;78.00;;;;;;5032737;28;19929;-74
2022/05/19 07:35:36;;;;;;;;;;;34.10;77.60;;;;;;5030288;28;20036;-74
2022/05/19 07:38:05;;;;;;;;;;;34.40;78.00;;;;;;5034621;28;19929;-74
2022/05/19 07:40:32;;;;;;;;;;;34.80;78.10;;;;;;5037240;28;19928;-73
2022/05/19 07:43:35;;;;;;;;;;;33.70;74.50;;;;;;5034981;28;20562;-73
2022/05/19 07:45:47;;;;;;;;;;;34.10;75.30;;;;;;5036434;28;20965;-74
2022/05/19 07:48:14;;;;;;;;;;;34.40;75.70;;;;;;5035988;28;19928;-74
2022/05/19 07:50:42;;;;;;;;;;;34.60;75.00;;;;;;5036233;28;20255;-74
2022/05/19 07:53:09;;;;;;;;;;;34.70;75.00;;;;;;5033402;28;19936;-74
2022/05/19 07:55:36;;;;;;;;;;;35.00;74.50;;;;;;5033784;28;19929;-74
2022/05/19 07:58:04;;;;;;;;;;;35.30;72.90;;;;;;5036287;28;19929;-73
2022/05/19 08:00:31;;;;;;;;;;;35.50;71.60;;;;;;5034485;28;19929;-74
2022/05/19 08:02:59;;;;;;;;;;;35.60;71.70;;;;;;5033721;28;19944;-74
2022/05/19 08:05:26;;;;;;;;;;;35.90;72.30;;;;;;5033294;28;19928;-73
2022/05/19 08:07:53;;;;;;;;;;;35.70;71.70;;;;;;5035386;28;19932;-73
2022/05/19 08:10:24;;;;;;;;;;;35.10;70.60;;;;;;5035318;28;20267;-73
2022/05/19 08:15:37;;;;;;;;;;;33.50;73.30;;;;;;5049905;28;19979;-73
2022/05/19 08:18:07;;;;;;;;;;;33.20;74.60;;;;;;5038477;28;20012;-73
2022/05/19 08:20:33;;;;;;;;;;;32.70;75.50;;;;;;5033652;28;19932;-73
2022/05/19 08:23:01;;;;;;;;;;;32.30;76.10;;;;;;5029342;28;20179;-73
2022/05/19 08:25:28;;;;;;;;;;;31.60;76.00;;;;;;5035932;28;19928;-73
2022/05/19 08:27:56;;;;;;;;;;;31.40;77.70;;;;;;5033837;28;19940;-73
2022/05/19 08:30:23;;;;;;;;;;;31.40;78.10;;;;;;5036868;28;19929;-73
2022/05/19 08:32:51;;;;;;;;;;;31.50;79.60;;;;;;5034955;28;20344;-73
2022/05/19 08:35:18;;;;;;;;;;;32.20;80.30;;;;;;5034972;28;19929;-74
2022/05/19 08:37:45;;;;;;;;;;;32.50;80.00;;;;;;5035633;28;20045;-73
2022/05/19 08:40:12;;;;;;;;;;;32.60;78.70;;;;;;5041019;28;19964;-74
2022/05/19 08:42:40;;;;;;;;;;;32.90;78.00;;;;;;5032953;28;20839;-74
2022/05/19 08:45:15;;;;;;;;;;;32.50;76.10;;;;;;5034103;28;20026;-73
2022/05/19 08:47:42;;;;;;;;;;;32.30;77.00;;;;;;5035028;28;19955;-75
2022/05/19 08:50:15;;;;;;;;;;;31.90;78.30;;;;;;5044464;28;19929;-74
2022/05/19 08:52:44;;;;;;;;;;;31.80;79.50;;;;;;5034440;28;20019;-72
2022/05/19 08:55:14;;;;;;;;;;;31.80;78.50;;;;;;5030254;28;19963;-73
2022/05/19 08:57:43;;;;;;;;;;;31.90;79.50;;;;;;5031633;28;20018;-73
2022/05/19 09:00:12;;;;;;;;;;;32.20;79.90;;;;;;5033274;28;19928;-73
2022/05/19 09:02:39;;;;;;;;;;;32.50;79.60;;;;;;5033834;28;19956;-73
2022/05/19 09:05:13;;;;;;;;;;;33.20;80.00;;;;;;5037410;28;19935;-73
2022/05/19 09:08:00;;;;;;;;;;;33.40;79.40;;;;;;5037623;28;19928;-74
2022/05/19 09:10:41;;;;;;;;;;;33.90;77.60;;;;;;5033627;28;20439;-74
2022/05/19 09:13:12;;;;;;;;;;;34.30;76.20;;;;;;5036673;28;19936;-74
2022/05/19 09:15:39;;;;;;;;;;;34.20;74.30;;;;;;5037883;28;19950;-73
2022/05/19 09:18:06;;;;;;;;;;;34.00;73.50;;;;;;5035313;28;20352;-73
2022/05/19 09:20:36;;;;;;;;;;;33.90;73.90;;;;;;5036599;28;19935;-74
2022/05/19 09:23:05;;;;;;;;;;;34.00;74.60;;;;;;5032633;28;19968;-74
2022/05/19 09:25:33;;;;;;;;;;;34.00;73.40;;;;;;5034111;28;20382;-73
2022/05/19 09:28:00;;;;;;;;;;;33.90;74.90;;;;;;5035547;28;20297;-73
2022/05/19 09:30:31;;;;;;;;;;;34.10;75.40;;;;;;5034198;28;19929;-74
2022/05/19 09:32:58;;;;;;;;;;;34.30;74.80;;;;;;5033549;28;20027;-73
2022/05/19 09:35:28;;;;;;;;;;;34.30;74.40;;;;;;5035986;28;20270;-73
2022/05/19 09:38:04;;;;;;;;;;;34.40;74.20;;;;;;5033732;28;19932;-73
2022/05/19 09:40:35;;;;;;;;;;;34.10;72.90;;;;;;5033048;28;19944;-73
2022/05/19 09:43:04;;;;;;;;;;;33.70;72.70;;;;;;5033225;28;20306;-74
2022/05/19 09:45:37;;;;;;;;;;;33.30;72.70;;;;;;5033023;28;20477;-73
2022/05/19 09:48:05;;;;;;;;;;;33.10;73.80;;;;;;5035514;28;19929;-74
2022/05/19 09:50:36;;;;;;;;;;;32.90;74.60;;;;;;5036609;28;20990;-73
2022/05/19 09:53:04;;;;;;;;;;;32.60;75.20;;;;;;5033957;28;19928;-73
2022/05/19 09:55:33;;;;;;;;;;;32.00;74.10;;;;;;5031610;28;20357;-74
2022/05/19 09:58:02;;;;;;;;;;;31.70;76.70;;;;;;5034347;28;19964;-78
2022/05/19 10:00:33;;;;;;;;;;;31.20;76.80;;;;;;5041430;28;20353;-76
2022/05/19 10:03:00;;;;;;;;;;;30.90;77.60;;;;;;5035081;28;19925;-77
2022/05/19 10:05:33;;;;;;;;;;;30.40;77.20;;;;;;5034918;28;19988;-76
2022/05/19 10:08:05;;;;;;;;;;;30.30;79.30;;;;;;5036325;28;20401;-77
2022/05/19 10:10:35;;;;;;;;;;;30.10;80.00;;;;;;5037530;28;19934;-76
2022/05/19 10:13:03;;;;;;;;;;;29.90;80.20;;;;;;5029632;28;20863;-76
2022/05/19 10:15:39;;;;;;;;;;;29.40;79.30;;;;;;5450732;22;20305;-77
2022/05/19 10:18:10;;;;;;;;;;;29.70;80.70;;;;;;5019148;28;20085;-77
2022/05/19 10:20:41;;;;;;;;;;;29.70;81.00;;;;;;5020469;28;19929;-77
2022/05/19 10:23:24;;;;;;;;;;;29.80;81.40;;;;;;5024012;28;20325;-76
2022/05/19 10:26:19;;;;;;;;;;;29.80;81.60;;;;;;5035810;28;19964;-78
2022/05/19 10:31:48;;;;;;;;;;;29.90;81.40;;;;;;5027561;28;20059;-72
2022/05/19 10:34:25;;;;;;;;;;;29.80;81.50;;;;;;5021583;28;20011;-73
2022/05/19 10:36:54;;;;;;;;;;;29.90;81.60;;;;;;5013127;28;19935;-73
2022/05/19 10:39:39;;;;;;;;;;;30.00;82.00;;;;;;5004927;28;21211;-73
2022/05/19 10:42:14;;;;;;;;;;;30.00;81.40;;;;;;4993947;28;20014;-72
2022/05/19 10:45:02;;;;;;;;;;;30.10;80.90;;;;;;5004664;28;20043;-73
2022/05/19 10:47:33;;;;;;;;;;;30.20;81.30;;;;;;5012709;28;19929;-74
2022/05/19 10:50:08;;;;;;;;;;;30.30;81.10;;;;;;5014409;28;20303;-75
2022/05/19 10:52:41;;;;;;;;;;;30.50;81.80;;;;;;5015518;28;19959;-74
2022/05/19 10:55:11;;;;;;;;;;;30.90;79.40;;;;;;5015128;28;19928;-74
2022/05/19 10:57:56;;;;;;;;;;;31.10;79.30;;;;;;5030943;28;19958;-74
2022/05/19 11:00:27;;;;;;;;;;;31.10;79.30;;;;;;5019919;28;19929;-74
2022/05/19 11:03:15;;;;;;;;;;;31.00;79.10;;;;;;5003076;28;19933;-75
2022/05/19 11:05:47;;;;;;;;;;;31.20;79.40;;;;;;4994566;28;20382;-74
2022/05/19 11:08:22;;;;;;;;;;;31.30;79.30;;;;;;5003645;28;20394;-74
2022/05/19 11:10:55;;;;;;;;;;;31.30;78.00;;;;;;5003409;28;19936;-74
2022/05/19 11:13:33;;;;;;;;;;;31.30;79.30;;;;;;5006177;28;20417;-74
2022/05/19 11:16:04;;;;;;;;;;;32.10;79.50;;;;;;5011012;28;19929;-74
2022/05/19 11:18:33;;;;;;;;;;;31.50;79.90;;;;;;5004945;28;20016;-74
2022/05/19 11:21:03;;;;;;;;;;;31.60;80.00;;;;;;5003018;28;19936;-74
2022/05/19 11:23:47;;;;;;;;;;;31.70;79.50;;;;;;5019363;28;20023;-74
2022/05/19 11:26:23;;;;;;;;;;;31.90;78.80;;;;;;5004592;28;19929;-74
2022/05/19 11:28:54;;;;;;;;;;;32.10;79.00;;;;;;5020971;28;20427;-76
2022/05/19 11:31:25;;;;;;;;;;;32.40;78.20;;;;;;5009426;28;20345;-77
2022/05/19 11:33:53;;;;;;;;;;;32.60;77.50;;;;;;5006527;28;19928;-76
2022/05/19 11:36:23;;;;;;;;;;;32.90;77.60;;;;;;5004637;28;19936;-78
2022/05/19 11:38:52;;;;;;;;;;;33.00;77.50;;;;;;5019758;28;19929;-76
2022/05/19 11:41:22;;;;;;;;;;;33.10;77.50;;;;;;5003739;28;20009;-76
2022/05/19 11:43:52;;;;;;;;;;;33.30;76.90;;;;;;5006332;28;20237;-78
2022/05/19 11:46:21;;;;;;;;;;;33.60;76.00;;;;;;5010366;28;20018;-77
2022/05/19 11:57:15;;;;;;;;;;;33.80;74.80;;;;;;5011027;28;19925;-77
2022/05/19 11:59:46;;;;;;;;;;;33.80;74.60;;;;;;5017960;28;19929;-76
2022/05/19 12:02:15;;;;;;;;;;;33.80;74.40;;;;;;5009893;28;19935;-77
2022/05/19 12:04:45;;;;;;;;;;;33.60;74.40;;;;;;5016140;28;19929;-76
2022/05/19 12:07:15;;;;;;;;;;;33.40;74.30;;;;;;5015582;28;20594;-76
2022/05/19 12:09:44;;;;;;;;;;;33.20;74.30;;;;;;5014903;28;20696;-77
2022/05/19 12:12:17;;;;;;;;;;;32.90;75.00;;;;;;5013984;28;19929;-78
2022/05/19 12:14:45;;;;;;;;;;;32.50;74.00;;;;;;5011741;28;19936;-76
2022/05/19 12:17:17;;;;;;;;;;;32.50;73.50;;;;;;5016425;28;19936;-76
2022/05/19 12:19:47;;;;;;;;;;;32.50;73.90;;;;;;5011545;28;20941;-76
2022/05/19 12:22:19;;;;;;;;;;;32.60;74.80;;;;;;5016294;28;19933;-79
2022/05/19 12:24:52;;;;;;;;;;;33.00;73.10;;;;;;5017587;28;20012;-77
2022/05/19 12:27:21;;;;;;;;;;;33.10;73.90;;;;;;5019107;28;19929;-76
2022/05/19 12:29:58;;;;;;;;;;;33.40;74.00;;;;;;5015553;28;19991;-78
2022/05/19 12:32:28;;;;;;;;;;;33.60;72.60;;;;;;5015480;28;20540;-77
2022/05/19 12:35:02;;;;;;;;;;;33.80;73.10;;;;;;5015750;28;20302;-77
2022/05/19 12:37:34;;;;;;;;;;;33.90;72.10;;;;;;5016717;28;20430;-77
2022/05/19 12:40:18;;;;;;;;;;;33.90;72.90;;;;;;5018856;28;20041;-76
2022/05/19 12:42:45;;;;;;;;;;;33.70;71.90;;;;;;5016661;28;19929;-76
2022/05/19 12:45:15;;;;;;;;;;;33.60;72.00;;;;;;5018110;28;19952;-77
2022/05/19 12:47:55;;;;;;;;;;;33.50;72.20;;;;;;5013910;28;20046;-77
2022/05/19 12:50:25;;;;;;;;;;;33.30;72.50;;;;;;5020441;28;19929;-77
2022/05/19 12:53:01;;;;;;;;;;;32.80;72.90;;;;;;5032550;28;19929;-75
2022/05/19 12:55:30;;;;;;;;;;;32.30;73.30;;;;;;5018300;28;19928;-75
2022/05/19 12:57:58;;;;;;;;;;;32.00;74.00;;;;;;5017418;28;19932;-76
2022/05/19 13:00:26;;;;;;;;;;;31.60;74.00;;;;;;5018977;28;20002;-75
2022/05/19 13:02:55;;;;;;;;;;;31.20;75.30;;;;;;5013587;28;19958;-77
2022/05/19 13:05:27;;;;;;;;;;;30.20;75.50;;;;;;5028314;28;19929;-77
2022/05/19 13:07:56;;;;;;;;;;;29.50;76.80;;;;;;5016305;28;19932;-78
2022/05/19 13:10:24;;;;;;;;;;;28.10;80.20;;;;;;5013975;28;19936;-77
2022/05/19 13:12:56;;;;;;;;;;;26.80;84.10;;;;;;5010587;28;19929;-78
2022/05/19 13:15:27;;;;;;;83.60;13.27;;;25.60;87.30;;;;;;5012835;28;20414;-77
2022/05/19 13:17:55;;;;;;;64.73;12.60;;;24.60;89.90;;;;;;5012826;28;20209;-76
2022/05/19 13:20:27;;;;;;;43.73;8.57;;;23.80;91.20;;;;;;5010235;28;20276;-76
2022/05/19 13:22:59;;;;;;;58.07;11.83;;;23.20;91.90;;;;;;5012728;28;20221;-77
2022/05/19 13:25:26;;;;;;;66.77;13.27;;;22.70;94.40;;;;;;5009757;28;20250;-76
2022/05/19 13:30:50;;;;;;;;;;;21.50;97.30;;;;;;5007428;28;20215;-76
2022/05/19 13:33:18;;;;;;;;;;;20.70;97.60;;;;;;5008840;28;19937;-77
2022/05/19 13:35:56;;;;;;;;;;;20.10;98.40;;;;;;5012219;28;19933;-77
2022/05/19 13:38:24;;;;;;;;;;;19.30;99.30;;;;;;5021287;28;19929;-77
2022/05/19 13:40:51;;;;;;;;;;;18.60;99.90;;;;;;5017568;28;19925;-77
2022/05/19 13:43:23;;;;;;;;;;;18.20;99.90;;;;;;5010011;28;19929;-77
2022/05/19 13:45:51;;;;;;;;;;;18.10;99.90;;;;;;5010629;28;20425;-77
2022/05/19 13:48:23;;;;;;;;;;;18.20;99.90;;;;;;5011372;28;20151;-76
2022/05/19 13:50:52;;;;;;;;;;;18.00;99.90;;;;;;5010127;28;19925;-76
2022/05/19 13:53:20;;;;;;;;;;;17.90;99.90;;;;;;5011781;28;19929;-77
2022/05/19 13:55:54;;;;;;;;;;;17.90;99.90;;;;;;5010728;28;20589;-77
2022/05/19 13:58:21;;;;;;;;;;;17.90;99.90;;;;;;5013399;28;19948;-77
2022/05/19 14:00:48;;;;;;;;;;;18.00;99.90;;;;;;5030088;28;19933;-77
2022/05/19 14:03:16;;;;;;;;;;;18.10;99.90;;;;;;5013809;28;19933;-77
2022/05/19 14:05:43;;;;;;;;;;;18.40;99.90;;;;;;5535794;22;19936;-76
2022/05/19 14:08:13;;;;;;;;;;;18.30;99.90;;;;;;5005092;28;19929;-78
2022/05/19 14:10:42;;;;;;;;;;;18.40;99.90;;;;;;5004046;28;19929;-76
2022/05/19 14:13:11;;;;;;;;;;;18.30;99.90;;;;;;5003826;28;19936;-77
2022/05/19 14:15:43;;;;;;;;;;;18.20;99.90;;;;;;5003470;28;19929;-76
2022/05/19 14:18:12;;;;;;;;;;;18.40;99.90;;;;;;5004920;28;20374;-77
2022/05/19 14:20:41;;;;;;;;;;;19.30;99.90;;;;;;5003939;28;19936;-76
2022/05/19 14:23:11;;;;;;;;;;;18.90;99.90;;;;;;5019634;28;19929;-77
2022/05/19 14:25:40;;;;;;;;;;;19.20;99.90;;;;;;5026967;28;19967;-76
2022/05/19 14:28:09;;;;;;;;;;;19.30;99.90;;;;;;5028149;28;19921;-76
2022/05/19 14:30:39;;;;;;;;;;;19.30;99.90;;;;;;5027106;28;20275;-75
2022/05/19 14:33:08;;;;;;;;;;;19.30;99.90;;;;;;5025709;28;19929;-75
2022/05/19 14:35:40;;;;;;;;;;;19.20;99.90;;;;;;5038212;28;19929;-75
2022/05/19 14:38:15;;;;;;;;;;;19.10;99.90;;;;;;5048191;28;19963;-75
2022/05/19 14:43:28;;;;;;;;;;;19.30;99.90;;;;;;5026701;28;19929;-76
2022/05/19 14:45:57;;;;;;;;;;;19.40;99.90;;;;;;5025883;28;20672;-76
2022/05/19 14:48:24;;;;;;;;;;;19.50;99.90;;;;;;5019866;28;19932;-76
2022/05/19 14:50:52;;;;;;;;;;;19.50;99.90;;;;;;5023566;28;19956;-76